sensor_id;sensor_type;location;lat;lon;timestamp;P1;durP1;ratioP1;P2;durP2;ratioP2
7156;SDS011;3620;49.862;8.758;2023-03-01T00:00:08;1.40;;;1.40;;
7156;SDS011;3620;49.862;8.758;2023-03-01T00:02:35;1.67;;;1.57;;
7156;SDS011;3620;49.862;8.758;2023-03-01T00:05:02;1.57;;;1.50;;
7156;SDS011;3620;49.862;8.758;2023-03-01T00:07:29;1.70;;;1.60;;
7156;SDS011;3620;49.862;8.758;2023-03-01T00:09:56;1.70;;;1.60;;
7156;SDS011;3620;49.862;8.758;2023-03-01T00:12:24;1.70;;;1.60;;
7156;SDS011;3620;49.862;8.758;2023-03-01T00:14:50;1.70;;;1.60;;
7156;SDS011;3620;49.862;8.758;2023-03-01T00:17:17;1.53;;;1.43;;
7156;SDS011;3620;49.862;8.758;2023-03-01T00:19:43;1.40;;;1.40;;
7156;SDS011;3620;49.862;8.758;2023-03-01T00:22:10;1.60;;;1.50;;
7156;SDS011;3620;49.862;8.758;2023-03-01T00:24:36;1.80;;;1.70;;
7156;SDS011;3620;49.862;8.758;2023-03-01T00:27:03;1.70;;;1.60;;
7156;SDS011;3620;49.862;8.758;2023-03-01T00:29:31;1.43;;;1.43;;
7156;SDS011;3620;49.862;8.758;2023-03-01T00:31:57;1.60;;;1.50;;
7156;SDS011;3620;49.862;8.758;2023-03-01T00:34:24;1.53;;;1.43;;
7156;SDS011;3620;49.862;8.758;2023-03-01T00:36:50;1.70;;;1.60;;
7156;SDS011;3620;49.862;8.758;2023-03-01T00:39:17;1.70;;;1.60;;
7156;SDS011;3620;49.862;8.758;2023-03-01T00:41:43;1.90;;;1.80;;
7156;SDS011;3620;49.862;8.758;2023-03-01T00:44:10;1.70;;;1.60;;
7156;SDS011;3620;49.862;8.758;2023-03-01T00:46:38;1.70;;;1.60;;
7156;SDS011;3620;49.862;8.758;2023-03-01T00:49:05;1.80;;;1.70;;
7156;SDS011;3620;49.862;8.758;2023-03-01T00:51:31;1.80;;;1.70;;
7156;SDS011;3620;49.862;8.758;2023-03-01T00:53:59;1.70;;;1.60;;
7156;SDS011;3620;49.862;8.758;2023-03-01T00:56:27;1.80;;;1.70;;
7156;SDS011;3620;49.862;8.758;2023-03-01T00:58:54;1.70;;;1.60;;
7156;SDS011;3620;49.862;8.758;2023-03-01T01:01:22;1.60;;;1.50;;
7156;SDS011;3620;49.862;8.758;2023-03-01T01:03:54;1.60;;;1.50;;
7156;SDS011;3620;49.862;8.758;2023-03-01T01:06:22;1.70;;;1.60;;
7156;SDS011;3620;49.862;8.758;2023-03-01T01:08:51;1.70;;;1.60;;
7156;SDS011;3620;49.862;8.758;2023-03-01T01:11:19;1.50;;;1.50;;
7156;SDS011;3620;49.862;8.758;2023-03-01T01:13:46;1.80;;;1.70;;
7156;SDS011;3620;49.862;8.758;2023-03-01T01:16:14;1.90;;;1.80;;
7156;SDS011;3620;49.862;8.758;2023-03-01T01:18:41;1.70;;;1.60;;
7156;SDS011;3620;49.862;8.758;2023-03-01T01:21:10;1.80;;;1.70;;
7156;SDS011;3620;49.862;8.758;2023-03-01T01:23:39;1.80;;;1.70;;
7156;SDS011;3620;49.862;8.758;2023-03-01T01:26:07;1.70;;;1.60;;
7156;SDS011;3620;49.862;8.758;2023-03-01T01:28:36;1.77;;;1.67;;
7156;SDS011;3620;49.862;8.758;2023-03-01T01:31:03;1.80;;;1.70;;
7156;SDS011;3620;49.862;8.758;2023-03-01T01:33:30;1.60;;;1.50;;
7156;SDS011;3620;49.862;8.758;2023-03-01T01:35:57;1.90;;;1.80;;
7156;SDS011;3620;49.862;8.758;2023-03-01T01:38:25;1.70;;;1.60;;
7156;SDS011;3620;49.862;8.758;2023-03-01T01:40:52;1.80;;;1.70;;
7156;SDS011;3620;49.862;8.758;2023-03-01T01:43:20;1.70;;;1.60;;
7156;SDS011;3620;49.862;8.758;2023-03-01T01:45:48;1.73;;;1.63;;
7156;SDS011;3620;49.862;8.758;2023-03-01T01:48:16;1.77;;;1.67;;
7156;SDS011;3620;49.862;8.758;2023-03-01T01:50:46;1.70;;;1.60;;
7156;SDS011;3620;49.862;8.758;2023-03-01T01:53:20;1.70;;;1.60;;
7156;SDS011;3620;49.862;8.758;2023-03-01T01:55:51;1.70;;;1.60;;
7156;SDS011;3620;49.862;8.758;2023-03-01T01:58:22;1.80;;;1.70;;
7156;SDS011;3620;49.862;8.758;2023-03-01T02:00:51;1.80;;;1.70;;
7156;SDS011;3620;49.862;8.758;2023-03-01T02:03:20;1.80;;;1.70;;
7156;SDS011;3620;49.862;8.758;2023-03-01T02:05:50;1.70;;;1.60;;
7156;SDS011;3620;49.862;8.758;2023-03-01T02:08:22;1.60;;;1.50;;
7156;SDS011;3620;49.862;8.758;2023-03-01T02:10:52;1.60;;;1.50;;
7156;SDS011;3620;49.862;8.758;2023-03-01T02:13:20;1.80;;;1.70;;
7156;SDS011;3620;49.862;8.758;2023-03-01T02:15:48;1.70;;;1.60;;
7156;SDS011;3620;49.862;8.758;2023-03-01T02:18:16;1.70;;;1.60;;
7156;SDS011;3620;49.862;8.758;2023-03-01T02:20:48;1.77;;;1.67;;
7156;SDS011;3620;49.862;8.758;2023-03-01T02:23:22;1.53;;;1.47;;
7156;SDS011;3620;49.862;8.758;2023-03-01T02:25:52;1.60;;;1.50;;
7156;SDS011;3620;49.862;8.758;2023-03-01T02:28:27;1.70;;;1.60;;
7156;SDS011;3620;49.862;8.758;2023-03-01T02:30:56;1.60;;;1.50;;
7156;SDS011;3620;49.862;8.758;2023-03-01T02:33:41;1.57;;;1.47;;
7156;SDS011;3620;49.862;8.758;2023-03-01T02:36:10;1.60;;;1.50;;
7156;SDS011;3620;49.862;8.758;2023-03-01T02:38:40;1.53;;;1.50;;
7156;SDS011;3620;49.862;8.758;2023-03-01T02:41:07;1.63;;;1.53;;
7156;SDS011;3620;49.862;8.758;2023-03-01T02:43:36;1.70;;;1.60;;
7156;SDS011;3620;49.862;8.758;2023-03-01T02:46:04;1.57;;;1.50;;
7156;SDS011;3620;49.862;8.758;2023-03-01T02:48:39;1.70;;;1.60;;
7156;SDS011;3620;49.862;8.758;2023-03-01T02:51:09;1.60;;;1.50;;
7156;SDS011;3620;49.862;8.758;2023-03-01T02:53:45;1.80;;;1.70;;
7156;SDS011;3620;49.862;8.758;2023-03-01T02:56:19;1.70;;;1.60;;
7156;SDS011;3620;49.862;8.758;2023-03-01T02:58:48;1.50;;;1.50;;
7156;SDS011;3620;49.862;8.758;2023-03-01T03:01:16;1.70;;;1.60;;
7156;SDS011;3620;49.862;8.758;2023-03-01T03:03:43;1.80;;;1.70;;
7156;SDS011;3620;49.862;8.758;2023-03-01T03:06:10;1.70;;;1.60;;
7156;SDS011;3620;49.862;8.758;2023-03-01T03:08:37;1.60;;;1.50;;
7156;SDS011;3620;49.862;8.758;2023-03-01T03:11:04;1.80;;;1.70;;
7156;SDS011;3620;49.862;8.758;2023-03-01T03:13:30;1.70;;;1.60;;
7156;SDS011;3620;49.862;8.758;2023-03-01T03:15:58;1.80;;;1.70;;
7156;SDS011;3620;49.862;8.758;2023-03-01T03:18:25;1.60;;;1.50;;
7156;SDS011;3620;49.862;8.758;2023-03-01T03:20:52;1.70;;;1.60;;
7156;SDS011;3620;49.862;8.758;2023-03-01T03:23:19;2.00;;;1.90;;
7156;SDS011;3620;49.862;8.758;2023-03-01T03:25:47;1.70;;;1.60;;
7156;SDS011;3620;49.862;8.758;2023-03-01T03:28:14;1.80;;;1.70;;
7156;SDS011;3620;49.862;8.758;2023-03-01T03:30:42;1.40;;;1.40;;
7156;SDS011;3620;49.862;8.758;2023-03-01T03:33:11;1.70;;;1.60;;
7156;SDS011;3620;49.862;8.758;2023-03-01T03:35:40;1.60;;;1.50;;
7156;SDS011;3620;49.862;8.758;2023-03-01T03:38:09;1.67;;;1.57;;
7156;SDS011;3620;49.862;8.758;2023-03-01T03:40:41;1.70;;;1.60;;
7156;SDS011;3620;49.862;8.758;2023-03-01T03:43:10;1.90;;;1.80;;
7156;SDS011;3620;49.862;8.758;2023-03-01T03:45:39;1.73;;;1.63;;
7156;SDS011;3620;49.862;8.758;2023-03-01T03:48:06;1.70;;;1.60;;
7156;SDS011;3620;49.862;8.758;2023-03-01T03:50:35;1.63;;;1.53;;
7156;SDS011;3620;49.862;8.758;2023-03-01T03:53:03;1.70;;;1.60;;
7156;SDS011;3620;49.862;8.758;2023-03-01T03:55:31;1.53;;;1.50;;
7156;SDS011;3620;49.862;8.758;2023-03-01T03:57:58;1.97;;;1.87;;
7156;SDS011;3620;49.862;8.758;2023-03-01T04:00:27;1.70;;;1.60;;
7156;SDS011;3620;49.862;8.758;2023-03-01T04:02:54;1.67;;;1.57;;
7156;SDS011;3620;49.862;8.758;2023-03-01T04:05:21;1.70;;;1.60;;
7156;SDS011;3620;49.862;8.758;2023-03-01T04:07:50;1.70;;;1.60;;
7156;SDS011;3620;49.862;8.758;2023-03-01T04:10:26;1.70;;;1.60;;
7156;SDS011;3620;49.862;8.758;2023-03-01T04:12:54;1.80;;;1.70;;
7156;SDS011;3620;49.862;8.758;2023-03-01T04:15:22;1.70;;;1.60;;
7156;SDS011;3620;49.862;8.758;2023-03-01T04:17:50;1.80;;;1.70;;
7156;SDS011;3620;49.862;8.758;2023-03-01T04:20:18;1.60;;;1.50;;
7156;SDS011;3620;49.862;8.758;2023-03-01T04:22:51;1.67;;;1.57;;
7156;SDS011;3620;49.862;8.758;2023-03-01T04:25:19;1.73;;;1.63;;
7156;SDS011;3620;49.862;8.758;2023-03-01T04:27:45;1.30;;;1.30;;
7156;SDS011;3620;49.862;8.758;2023-03-01T04:30:12;1.80;;;1.70;;
7156;SDS011;3620;49.862;8.758;2023-03-01T04:32:39;1.80;;;1.70;;
7156;SDS011;3620;49.862;8.758;2023-03-01T04:35:06;1.80;;;1.70;;
7156;SDS011;3620;49.862;8.758;2023-03-01T04:37:33;1.60;;;1.50;;
7156;SDS011;3620;49.862;8.758;2023-03-01T04:40:01;1.53;;;1.50;;
7156;SDS011;3620;49.862;8.758;2023-03-01T04:42:37;1.90;;;1.80;;
7156;SDS011;3620;49.862;8.758;2023-03-01T04:45:04;1.53;;;1.47;;
7156;SDS011;3620;49.862;8.758;2023-03-01T04:47:38;1.63;;;1.53;;
7156;SDS011;3620;49.862;8.758;2023-03-01T04:50:05;1.90;;;1.80;;
7156;SDS011;3620;49.862;8.758;2023-03-01T04:52:33;1.80;;;1.70;;
7156;SDS011;3620;49.862;8.758;2023-03-01T04:54:59;1.60;;;1.50;;
7156;SDS011;3620;49.862;8.758;2023-03-01T04:57:27;1.77;;;1.67;;
7156;SDS011;3620;49.862;8.758;2023-03-01T04:59:54;1.73;;;1.63;;
7156;SDS011;3620;49.862;8.758;2023-03-01T05:02:20;1.70;;;1.60;;
7156;SDS011;3620;49.862;8.758;2023-03-01T05:04:47;1.40;;;1.40;;
7156;SDS011;3620;49.862;8.758;2023-03-01T05:07:13;1.80;;;1.70;;
7156;SDS011;3620;49.862;8.758;2023-03-01T05:09:44;1.80;;;1.70;;
7156;SDS011;3620;49.862;8.758;2023-03-01T05:12:10;1.67;;;1.57;;
7156;SDS011;3620;49.862;8.758;2023-03-01T05:14:38;1.70;;;1.60;;
7156;SDS011;3620;49.862;8.758;2023-03-01T05:17:05;1.50;;;1.50;;
7156;SDS011;3620;49.862;8.758;2023-03-01T05:19:33;1.60;;;1.50;;
7156;SDS011;3620;49.862;8.758;2023-03-01T05:21:59;1.60;;;1.50;;
7156;SDS011;3620;49.862;8.758;2023-03-01T05:24:30;1.60;;;1.53;;
7156;SDS011;3620;49.862;8.758;2023-03-01T05:26:58;1.67;;;1.57;;
7156;SDS011;3620;49.862;8.758;2023-03-01T05:29:26;1.97;;;1.87;;
7156;SDS011;3620;49.862;8.758;2023-03-01T05:31:56;1.43;;;1.43;;
7156;SDS011;3620;49.862;8.758;2023-03-01T05:34:24;1.70;;;1.60;;
7156;SDS011;3620;49.862;8.758;2023-03-01T05:36:51;1.67;;;1.57;;
7156;SDS011;3620;49.862;8.758;2023-03-01T05:39:19;1.40;;;1.40;;
7156;SDS011;3620;49.862;8.758;2023-03-01T05:41:47;1.80;;;1.70;;
7156;SDS011;3620;49.862;8.758;2023-03-01T05:44:14;1.80;;;1.70;;
7156;SDS011;3620;49.862;8.758;2023-03-01T05:46:41;1.87;;;1.77;;
7156;SDS011;3620;49.862;8.758;2023-03-01T05:49:08;1.40;;;1.40;;
7156;SDS011;3620;49.862;8.758;2023-03-01T05:51:35;1.40;;;1.40;;
7156;SDS011;3620;49.862;8.758;2023-03-01T05:54:02;1.73;;;1.63;;
7156;SDS011;3620;49.862;8.758;2023-03-01T05:56:31;1.70;;;1.60;;
7156;SDS011;3620;49.862;8.758;2023-03-01T05:58:58;1.60;;;1.50;;
7156;SDS011;3620;49.862;8.758;2023-03-01T06:01:25;1.50;;;1.50;;
7156;SDS011;3620;49.862;8.758;2023-03-01T06:03:51;1.60;;;1.50;;
7156;SDS011;3620;49.862;8.758;2023-03-01T06:06:19;1.80;;;1.70;;
7156;SDS011;3620;49.862;8.758;2023-03-01T06:08:46;1.80;;;1.70;;
7156;SDS011;3620;49.862;8.758;2023-03-01T06:11:12;1.73;;;1.63;;
7156;SDS011;3620;49.862;8.758;2023-03-01T06:13:40;1.60;;;1.50;;
7156;SDS011;3620;49.862;8.758;2023-03-01T06:16:07;1.90;;;1.80;;
7156;SDS011;3620;49.862;8.758;2023-03-01T06:18:34;1.40;;;1.40;;
7156;SDS011;3620;49.862;8.758;2023-03-01T06:21:01;1.70;;;1.60;;
7156;SDS011;3620;49.862;8.758;2023-03-01T06:23:29;1.50;;;1.50;;
7156;SDS011;3620;49.862;8.758;2023-03-01T06:25:56;1.80;;;1.70;;
7156;SDS011;3620;49.862;8.758;2023-03-01T06:28:23;1.87;;;1.77;;
7156;SDS011;3620;49.862;8.758;2023-03-01T06:30:49;1.70;;;1.60;;
7156;SDS011;3620;49.862;8.758;2023-03-01T06:33:16;1.73;;;1.63;;
7156;SDS011;3620;49.862;8.758;2023-03-01T06:35:45;1.70;;;1.60;;
7156;SDS011;3620;49.862;8.758;2023-03-01T06:38:11;1.70;;;1.60;;
7156;SDS011;3620;49.862;8.758;2023-03-01T06:40:41;1.60;;;1.50;;
7156;SDS011;3620;49.862;8.758;2023-03-01T06:43:07;1.73;;;1.63;;
7156;SDS011;3620;49.862;8.758;2023-03-01T06:45:34;1.73;;;1.63;;
7156;SDS011;3620;49.862;8.758;2023-03-01T06:48:01;1.73;;;1.63;;
7156;SDS011;3620;49.862;8.758;2023-03-01T06:50:29;1.90;;;1.80;;
7156;SDS011;3620;49.862;8.758;2023-03-01T06:52:55;1.70;;;1.60;;
7156;SDS011;3620;49.862;8.758;2023-03-01T06:55:22;1.80;;;1.70;;
7156;SDS011;3620;49.862;8.758;2023-03-01T06:57:54;1.50;;;1.43;;
7156;SDS011;3620;49.862;8.758;2023-03-01T07:00:22;1.80;;;1.70;;
7156;SDS011;3620;49.862;8.758;2023-03-01T07:02:50;1.70;;;1.60;;
7156;SDS011;3620;49.862;8.758;2023-03-01T07:05:18;1.70;;;1.60;;
7156;SDS011;3620;49.862;8.758;2023-03-01T07:07:44;1.77;;;1.67;;
7156;SDS011;3620;49.862;8.758;2023-03-01T07:10:11;1.70;;;1.60;;
7156;SDS011;3620;49.862;8.758;2023-03-01T07:12:38;1.70;;;1.60;;
7156;SDS011;3620;49.862;8.758;2023-03-01T07:15:08;1.47;;;1.43;;
7156;SDS011;3620;49.862;8.758;2023-03-01T07:17:36;1.60;;;1.50;;
7156;SDS011;3620;49.862;8.758;2023-03-01T07:20:02;1.43;;;1.40;;
7156;SDS011;3620;49.862;8.758;2023-03-01T07:22:29;1.70;;;1.60;;
7156;SDS011;3620;49.862;8.758;2023-03-01T07:24:56;1.60;;;1.50;;
7156;SDS011;3620;49.862;8.758;2023-03-01T07:27:23;1.50;;;1.40;;
7156;SDS011;3620;49.862;8.758;2023-03-01T07:29:49;1.70;;;1.60;;
7156;SDS011;3620;49.862;8.758;2023-03-01T07:32:17;1.70;;;1.60;;
7156;SDS011;3620;49.862;8.758;2023-03-01T07:34:44;1.60;;;1.50;;
7156;SDS011;3620;49.862;8.758;2023-03-01T07:37:10;1.60;;;1.50;;
7156;SDS011;3620;49.862;8.758;2023-03-01T07:39:37;1.67;;;1.57;;
7156;SDS011;3620;49.862;8.758;2023-03-01T07:42:03;1.57;;;1.50;;
7156;SDS011;3620;49.862;8.758;2023-03-01T07:44:30;1.70;;;1.60;;
7156;SDS011;3620;49.862;8.758;2023-03-01T07:46:56;1.70;;;1.60;;
7156;SDS011;3620;49.862;8.758;2023-03-01T07:49:24;1.60;;;1.50;;
7156;SDS011;3620;49.862;8.758;2023-03-01T07:51:52;1.50;;;1.47;;
7156;SDS011;3620;49.862;8.758;2023-03-01T07:54:18;1.40;;;1.40;;
7156;SDS011;3620;49.862;8.758;2023-03-01T07:56:45;1.70;;;1.60;;
7156;SDS011;3620;49.862;8.758;2023-03-01T07:59:11;1.60;;;1.50;;
7156;SDS011;3620;49.862;8.758;2023-03-01T08:01:39;1.33;;;1.33;;
7156;SDS011;3620;49.862;8.758;2023-03-01T08:04:07;1.60;;;1.50;;
7156;SDS011;3620;49.862;8.758;2023-03-01T08:06:35;1.40;;;1.40;;
7156;SDS011;3620;49.862;8.758;2023-03-01T08:09:02;1.60;;;1.50;;
7156;SDS011;3620;49.862;8.758;2023-03-01T08:11:29;1.60;;;1.50;;
7156;SDS011;3620;49.862;8.758;2023-03-01T08:13:55;1.40;;;1.40;;
7156;SDS011;3620;49.862;8.758;2023-03-01T08:16:22;1.43;;;1.40;;
7156;SDS011;3620;49.862;8.758;2023-03-01T08:18:49;1.60;;;1.50;;
7156;SDS011;3620;49.862;8.758;2023-03-01T08:21:16;1.40;;;1.40;;
7156;SDS011;3620;49.862;8.758;2023-03-01T08:23:45;1.33;;;1.33;;
7156;SDS011;3620;49.862;8.758;2023-03-01T08:26:12;1.60;;;1.50;;
7156;SDS011;3620;49.862;8.758;2023-03-01T08:28:41;1.60;;;1.50;;
7156;SDS011;3620;49.862;8.758;2023-03-01T08:31:19;1.70;;;1.60;;
7156;SDS011;3620;49.862;8.758;2023-03-01T08:33:47;1.70;;;1.60;;
7156;SDS011;3620;49.862;8.758;2023-03-01T08:36:16;1.60;;;1.50;;
7156;SDS011;3620;49.862;8.758;2023-03-01T08:38:46;1.50;;;1.40;;
7156;SDS011;3620;49.862;8.758;2023-03-01T08:41:12;1.40;;;1.37;;
7156;SDS011;3620;49.862;8.758;2023-03-01T08:43:39;1.70;;;1.60;;
7156;SDS011;3620;49.862;8.758;2023-03-01T08:46:06;1.63;;;1.53;;
7156;SDS011;3620;49.862;8.758;2023-03-01T08:48:32;1.40;;;1.40;;
7156;SDS011;3620;49.862;8.758;2023-03-01T08:51:06;1.30;;;1.30;;
7156;SDS011;3620;49.862;8.758;2023-03-01T08:53:33;1.43;;;1.40;;
7156;SDS011;3620;49.862;8.758;2023-03-01T08:56:01;1.37;;;1.37;;
7156;SDS011;3620;49.862;8.758;2023-03-01T08:58:28;1.37;;;1.37;;
7156;SDS011;3620;49.862;8.758;2023-03-01T09:00:55;1.50;;;1.40;;
7156;SDS011;3620;49.862;8.758;2023-03-01T09:03:22;1.60;;;1.50;;
7156;SDS011;3620;49.862;8.758;2023-03-01T09:05:49;1.40;;;1.40;;
7156;SDS011;3620;49.862;8.758;2023-03-01T09:08:16;1.60;;;1.50;;
7156;SDS011;3620;49.862;8.758;2023-03-01T09:10:43;1.40;;;1.40;;
7156;SDS011;3620;49.862;8.758;2023-03-01T09:13:10;1.43;;;1.40;;
7156;SDS011;3620;49.862;8.758;2023-03-01T09:15:37;1.30;;;1.30;;
7156;SDS011;3620;49.862;8.758;2023-03-01T09:18:04;1.60;;;1.50;;
7156;SDS011;3620;49.862;8.758;2023-03-01T09:20:31;1.50;;;1.40;;
7156;SDS011;3620;49.862;8.758;2023-03-01T09:22:58;1.50;;;1.40;;
7156;SDS011;3620;49.862;8.758;2023-03-01T09:25:24;1.23;;;1.23;;
7156;SDS011;3620;49.862;8.758;2023-03-01T09:27:51;1.30;;;1.30;;
7156;SDS011;3620;49.862;8.758;2023-03-01T09:30:19;1.37;;;1.33;;
7156;SDS011;3620;49.862;8.758;2023-03-01T09:32:46;1.20;;;1.20;;
7156;SDS011;3620;49.862;8.758;2023-03-01T09:35:13;1.13;;;1.13;;
7156;SDS011;3620;49.862;8.758;2023-03-01T09:37:40;1.30;;;1.30;;
7156;SDS011;3620;49.862;8.758;2023-03-01T09:40:11;1.20;;;1.20;;
7156;SDS011;3620;49.862;8.758;2023-03-01T09:42:45;1.43;;;1.33;;
7156;SDS011;3620;49.862;8.758;2023-03-01T09:45:18;1.33;;;1.33;;
7156;SDS011;3620;49.862;8.758;2023-03-01T09:47:53;1.40;;;1.30;;
7156;SDS011;3620;49.862;8.758;2023-03-01T09:50:22;1.30;;;1.30;;
7156;SDS011;3620;49.862;8.758;2023-03-01T09:52:50;1.30;;;1.30;;
7156;SDS011;3620;49.862;8.758;2023-03-01T09:55:26;1.40;;;1.30;;
7156;SDS011;3620;49.862;8.758;2023-03-01T09:57:58;1.30;;;1.30;;
7156;SDS011;3620;49.862;8.758;2023-03-01T10:00:36;1.20;;;1.20;;
7156;SDS011;3620;49.862;8.758;2023-03-01T10:03:11;1.20;;;1.20;;
7156;SDS011;3620;49.862;8.758;2023-03-01T10:05:44;1.50;;;1.40;;
7156;SDS011;3620;49.862;8.758;2023-03-01T10:08:25;1.30;;;1.30;;
7156;SDS011;3620;49.862;8.758;2023-03-01T10:10:56;1.20;;;1.20;;
7156;SDS011;3620;49.862;8.758;2023-03-01T10:13:23;1.20;;;1.20;;
7156;SDS011;3620;49.862;8.758;2023-03-01T10:15:55;1.40;;;1.40;;
7156;SDS011;3620;49.862;8.758;2023-03-01T10:18:26;1.50;;;1.40;;
7156;SDS011;3620;49.862;8.758;2023-03-01T10:20:55;1.20;;;1.20;;
7156;SDS011;3620;49.862;8.758;2023-03-01T10:23:25;1.30;;;1.30;;
7156;SDS011;3620;49.862;8.758;2023-03-01T10:25:56;1.30;;;1.30;;
7156;SDS011;3620;49.862;8.758;2023-03-01T10:28:36;1.20;;;1.20;;
7156;SDS011;3620;49.862;8.758;2023-03-01T10:31:14;1.30;;;1.30;;
7156;SDS011;3620;49.862;8.758;2023-03-01T10:33:47;1.40;;;1.30;;
7156;SDS011;3620;49.862;8.758;2023-03-01T10:36:18;1.23;;;1.23;;
7156;SDS011;3620;49.862;8.758;2023-03-01T10:38:49;1.27;;;1.27;;
7156;SDS011;3620;49.862;8.758;2023-03-01T10:41:19;1.20;;;1.20;;
7156;SDS011;3620;49.862;8.758;2023-03-01T10:43:49;1.30;;;1.30;;
7156;SDS011;3620;49.862;8.758;2023-03-01T10:46:29;1.17;;;1.17;;
7156;SDS011;3620;49.862;8.758;2023-03-01T10:49:07;1.40;;;1.30;;
7156;SDS011;3620;49.862;8.758;2023-03-01T10:51:40;1.20;;;1.20;;
7156;SDS011;3620;49.862;8.758;2023-03-01T10:54:15;1.20;;;1.20;;
7156;SDS011;3620;49.862;8.758;2023-03-01T10:56:47;1.20;;;1.20;;
7156;SDS011;3620;49.862;8.758;2023-03-01T10:59:28;1.30;;;1.30;;
7156;SDS011;3620;49.862;8.758;2023-03-01T11:04:56;1.20;;;1.20;;
7156;SDS011;3620;49.862;8.758;2023-03-01T11:07:25;1.40;;;1.30;;
7156;SDS011;3620;49.862;8.758;2023-03-01T11:09:52;1.10;;;1.10;;
7156;SDS011;3620;49.862;8.758;2023-03-01T11:12:19;1.20;;;1.20;;
7156;SDS011;3620;49.862;8.758;2023-03-01T11:14:47;1.17;;;1.17;;
7156;SDS011;3620;49.862;8.758;2023-03-01T11:17:17;1.30;;;1.30;;
7156;SDS011;3620;49.862;8.758;2023-03-01T11:19:59;1.20;;;1.20;;
7156;SDS011;3620;49.862;8.758;2023-03-01T11:22:28;1.10;;;1.10;;
7156;SDS011;3620;49.862;8.758;2023-03-01T11:24:57;1.20;;;1.20;;
7156;SDS011;3620;49.862;8.758;2023-03-01T11:27:25;1.17;;;1.17;;
7156;SDS011;3620;49.862;8.758;2023-03-01T11:29:55;0.90;;;0.90;;
7156;SDS011;3620;49.862;8.758;2023-03-01T11:32:29;1.10;;;1.10;;
7156;SDS011;3620;49.862;8.758;2023-03-01T11:35:02;1.30;;;1.30;;
7156;SDS011;3620;49.862;8.758;2023-03-01T11:37:35;1.20;;;1.20;;
7156;SDS011;3620;49.862;8.758;2023-03-01T11:40:13;1.10;;;1.10;;
7156;SDS011;3620;49.862;8.758;2023-03-01T11:42:48;1.30;;;1.30;;
7156;SDS011;3620;49.862;8.758;2023-03-01T11:45:22;1.10;;;1.10;;
7156;SDS011;3620;49.862;8.758;2023-03-01T11:47:58;1.30;;;1.30;;
7156;SDS011;3620;49.862;8.758;2023-03-01T11:50:35;1.33;;;1.27;;
7156;SDS011;3620;49.862;8.758;2023-03-01T11:53:19;1.10;;;1.10;;
7156;SDS011;3620;49.862;8.758;2023-03-01T11:55:59;1.20;;;1.20;;
7156;SDS011;3620;49.862;8.758;2023-03-01T11:58:35;1.10;;;1.10;;
7156;SDS011;3620;49.862;8.758;2023-03-01T12:01:12;1.20;;;1.20;;
7156;SDS011;3620;49.862;8.758;2023-03-01T12:03:54;1.10;;;1.10;;
7156;SDS011;3620;49.862;8.758;2023-03-01T12:06:43;1.20;;;1.20;;
7156;SDS011;3620;49.862;8.758;2023-03-01T12:09:36;1.20;;;1.20;;
7156;SDS011;3620;49.862;8.758;2023-03-01T12:12:21;1.20;;;1.20;;
7156;SDS011;3620;49.862;8.758;2023-03-01T12:15:13;1.20;;;1.20;;
7156;SDS011;3620;49.862;8.758;2023-03-01T12:18:01;1.10;;;1.10;;
7156;SDS011;3620;49.862;8.758;2023-03-01T12:20:41;1.20;;;1.20;;
7156;SDS011;3620;49.862;8.758;2023-03-01T12:23:20;1.20;;;1.20;;
7156;SDS011;3620;49.862;8.758;2023-03-01T12:26:10;1.20;;;1.20;;
7156;SDS011;3620;49.862;8.758;2023-03-01T12:31:53;1.10;;;1.10;;
7156;SDS011;3620;49.862;8.758;2023-03-01T12:34:36;1.23;;;1.20;;
7156;SDS011;3620;49.862;8.758;2023-03-01T12:37:19;1.10;;;1.10;;
7156;SDS011;3620;49.862;8.758;2023-03-01T12:39:55;1.20;;;1.20;;
7156;SDS011;3620;49.862;8.758;2023-03-01T12:42:38;1.50;;;1.40;;
7156;SDS011;3620;49.862;8.758;2023-03-01T12:45:24;1.20;;;1.20;;
7156;SDS011;3620;49.862;8.758;2023-03-01T12:48:08;1.10;;;1.10;;
7156;SDS011;3620;49.862;8.758;2023-03-01T12:50:51;1.03;;;1.03;;
7156;SDS011;3620;49.862;8.758;2023-03-01T12:53:24;1.20;;;1.20;;
7156;SDS011;3620;49.862;8.758;2023-03-01T12:55:53;1.20;;;1.20;;
7156;SDS011;3620;49.862;8.758;2023-03-01T12:58:24;1.20;;;1.20;;
7156;SDS011;3620;49.862;8.758;2023-03-01T13:01:00;1.00;;;1.00;;
7156;SDS011;3620;49.862;8.758;2023-03-01T13:03:39;1.10;;;1.10;;
7156;SDS011;3620;49.862;8.758;2023-03-01T13:06:19;1.10;;;1.10;;
7156;SDS011;3620;49.862;8.758;2023-03-01T13:08:57;1.20;;;1.20;;
7156;SDS011;3620;49.862;8.758;2023-03-01T13:11:31;1.40;;;1.30;;
7156;SDS011;3620;49.862;8.758;2023-03-01T13:16:59;1.10;;;1.10;;
7156;SDS011;3620;49.862;8.758;2023-03-01T13:19:26;1.10;;;1.10;;
7156;SDS011;3620;49.862;8.758;2023-03-01T13:21:57;1.10;;;1.10;;
7156;SDS011;3620;49.862;8.758;2023-03-01T13:24:26;1.10;;;1.10;;
7156;SDS011;3620;49.862;8.758;2023-03-01T13:29:54;1.10;;;1.10;;
7156;SDS011;3620;49.862;8.758;2023-03-01T13:32:25;1.10;;;1.10;;
7156;SDS011;3620;49.862;8.758;2023-03-01T13:34:55;1.10;;;1.10;;
7156;SDS011;3620;49.862;8.758;2023-03-01T13:37:26;1.10;;;1.10;;
7156;SDS011;3620;49.862;8.758;2023-03-01T13:40:00;1.00;;;1.00;;
7156;SDS011;3620;49.862;8.758;2023-03-01T13:42:34;1.00;;;1.00;;
7156;SDS011;3620;49.862;8.758;2023-03-01T13:45:05;1.03;;;1.03;;
7156;SDS011;3620;49.862;8.758;2023-03-01T13:47:42;1.10;;;1.10;;
7156;SDS011;3620;49.862;8.758;2023-03-01T13:50:16;1.10;;;1.10;;
7156;SDS011;3620;49.862;8.758;2023-03-01T13:52:46;1.10;;;1.10;;
7156;SDS011;3620;49.862;8.758;2023-03-01T13:55:19;1.10;;;1.10;;
7156;SDS011;3620;49.862;8.758;2023-03-01T13:57:48;1.17;;;1.17;;
7156;SDS011;3620;49.862;8.758;2023-03-01T14:00:28;1.10;;;1.10;;
7156;SDS011;3620;49.862;8.758;2023-03-01T14:03:02;1.10;;;1.10;;
7156;SDS011;3620;49.862;8.758;2023-03-01T14:05:30;1.00;;;1.00;;
7156;SDS011;3620;49.862;8.758;2023-03-01T14:07:56;1.03;;;1.03;;
7156;SDS011;3620;49.862;8.758;2023-03-01T14:10:25;1.20;;;1.20;;
7156;SDS011;3620;49.862;8.758;2023-03-01T14:12:59;1.10;;;1.10;;
7156;SDS011;3620;49.862;8.758;2023-03-01T14:15:37;1.10;;;1.10;;
7156;SDS011;3620;49.862;8.758;2023-03-01T14:18:08;1.10;;;1.10;;
7156;SDS011;3620;49.862;8.758;2023-03-01T14:20:41;1.10;;;1.10;;
7156;SDS011;3620;49.862;8.758;2023-03-01T14:23:11;1.10;;;1.10;;
7156;SDS011;3620;49.862;8.758;2023-03-01T14:25:45;1.03;;;1.03;;
7156;SDS011;3620;49.862;8.758;2023-03-01T14:28:14;1.10;;;1.10;;
7156;SDS011;3620;49.862;8.758;2023-03-01T14:30:44;1.00;;;1.00;;
7156;SDS011;3620;49.862;8.758;2023-03-01T14:33:19;1.10;;;1.10;;
7156;SDS011;3620;49.862;8.758;2023-03-01T14:35:52;1.00;;;1.00;;
7156;SDS011;3620;49.862;8.758;2023-03-01T14:38:20;1.00;;;1.00;;
7156;SDS011;3620;49.862;8.758;2023-03-01T14:40:50;1.00;;;1.00;;
7156;SDS011;3620;49.862;8.758;2023-03-01T14:43:33;1.00;;;1.00;;
7156;SDS011;3620;49.862;8.758;2023-03-01T14:46:03;1.00;;;1.00;;
7156;SDS011;3620;49.862;8.758;2023-03-01T14:48:30;1.00;;;1.00;;
7156;SDS011;3620;49.862;8.758;2023-03-01T14:50:58;1.10;;;1.10;;
7156;SDS011;3620;49.862;8.758;2023-03-01T14:53:26;1.10;;;1.10;;
7156;SDS011;3620;49.862;8.758;2023-03-01T14:56:00;0.90;;;0.90;;
7156;SDS011;3620;49.862;8.758;2023-03-01T14:58:28;1.00;;;1.00;;
7156;SDS011;3620;49.862;8.758;2023-03-01T15:00:55;0.90;;;0.90;;
7156;SDS011;3620;49.862;8.758;2023-03-01T15:03:25;1.07;;;1.07;;
7156;SDS011;3620;49.862;8.758;2023-03-01T15:05:58;1.00;;;1.00;;
7156;SDS011;3620;49.862;8.758;2023-03-01T15:08:27;1.00;;;1.00;;
7156;SDS011;3620;49.862;8.758;2023-03-01T15:11:00;1.00;;;1.00;;
7156;SDS011;3620;49.862;8.758;2023-03-01T15:13:30;1.10;;;1.10;;
7156;SDS011;3620;49.862;8.758;2023-03-01T15:16:02;1.10;;;1.10;;
7156;SDS011;3620;49.862;8.758;2023-03-01T15:18:32;1.10;;;1.10;;
7156;SDS011;3620;49.862;8.758;2023-03-01T15:21:06;1.00;;;1.00;;
7156;SDS011;3620;49.862;8.758;2023-03-01T15:23:35;1.10;;;1.10;;
7156;SDS011;3620;49.862;8.758;2023-03-01T15:26:05;1.00;;;1.00;;
7156;SDS011;3620;49.862;8.758;2023-03-01T15:28:48;1.00;;;1.00;;
7156;SDS011;3620;49.862;8.758;2023-03-01T15:31:18;1.13;;;1.13;;
7156;SDS011;3620;49.862;8.758;2023-03-01T15:33:46;1.00;;;1.00;;
7156;SDS011;3620;49.862;8.758;2023-03-01T15:36:30;1.10;;;1.10;;
7156;SDS011;3620;49.862;8.758;2023-03-01T15:38:59;1.10;;;1.10;;
7156;SDS011;3620;49.862;8.758;2023-03-01T15:41:29;1.10;;;1.10;;
7156;SDS011;3620;49.862;8.758;2023-03-01T15:43:57;0.90;;;0.90;;